Time;durP1;ratioP1;P1;durP2;ratioP2;P2;SDS_P1;SDS_P2;PMS_P1;PMS_P2;Temp;Humidity;BMP_temperature;BMP_pressure;BME280_temperature;BME280_humidity;BME280_pressure;Samples;Min_cycle;Max_cycle;Signal;HPM_P1;HPM_P2
2022/07/19 00:00:46;;;;;;;;;;;;;;;18.61;61.30;101421.00;4990653;28;19921;-77
2022/07/19 00:03:11;;;;;;;;;;;;;;;18.59;60.77;101422.88;4986302;28;19932;-80
2022/07/19 00:05:37;;;;;;;;;;;;;;;18.55;61.64;101416.03;4985951;28;19925;-79
2022/07/19 00:08:02;;;;;;;;;;;;;;;18.59;60.46;101416.75;4993570;28;19922;-78
2022/07/19 00:10:27;;;;;;;;;;;;;;;18.58;59.95;101415.03;4999962;28;19933;-78
2022/07/19 00:12:53;;;;;;;;;;;;;;;18.58;59.06;101413.25;4978125;28;19949;-78
2022/07/19 00:15:18;;;;;;;;;;;;;;;18.54;59.45;101416.09;4984756;28;19936;-78
2022/07/19 00:17:45;;;;;;;;;;;;;;;18.55;59.85;101417.78;5001041;28;19921;-78
2022/07/19 00:20:12;;;;;;;;;;;;;;;18.49;60.08;101418.91;4993411;28;20460;-78
2022/07/19 00:22:38;;;;;;;;;;;;;;;18.47;60.27;101419.91;4994310;28;19976;-78
2022/07/19 00:25:04;;;;;;;;;;;;;;;18.45;60.74;101416.47;5007482;28;19921;-78
2022/07/19 00:27:29;;;;;;;;;;;;;;;18.42;60.86;101419.22;4990023;28;19957;-79
2022/07/19 00:29:54;;;;;;;;;;;;;;;18.42;60.45;101421.84;4979107;28;19930;-80
2022/07/19 00:32:20;;;;;;;;;;;;;;;18.40;60.94;101416.66;4994536;28;19925;-80
2022/07/19 00:34:45;;;;;;;;;;;;;;;18.41;60.41;101417.50;4999064;28;19944;-80
2022/07/19 00:37:10;;;;;;;;;;;;;;;18.43;58.93;101421.78;4986124;28;19972;-80
2022/07/19 00:39:36;;;;;;;;;;;;;;;18.42;59.31;101412.16;4986143;28;19956;-78
2022/07/19 00:42:02;;;;;;;;;;;;;;;18.39;59.47;101408.84;4982613;28;19936;-78
2022/07/19 00:44:27;;;;;;;;;;;;;;;18.36;60.71;101416.84;4987244;28;20300;-78
2022/07/19 00:46:52;;;;;;;;;;;;;;;18.33;60.32;101411.72;4983367;28;19929;-78
2022/07/19 00:49:18;;;;;;;;;;;;;;;18.35;59.97;101416.00;4986280;28;20297;-78
2022/07/19 00:51:44;;;;;;;;;;;;;;;18.33;60.07;101411.72;4986683;28;19918;-78
2022/07/19 00:54:11;;;;;;;;;;;;;;;18.32;60.37;101410.88;5003993;28;20343;-78
2022/07/19 00:56:37;;;;;;;;;;;;;;;18.31;59.96;101410.91;5007874;28;19930;-78
2022/07/19 00:59:03;;;;;;;;;;;;;;;18.34;59.30;101416.91;5006375;28;20006;-78
2022/07/19 01:01:28;;;;;;;;;;;;;;;18.34;58.90;101410.78;5006234;28;19929;-78
2022/07/19 01:03:54;;;;;;;;;;;;;;;18.31;59.95;101422.31;5004860;28;19921;-78
2022/07/19 01:06:20;;;;;;;;;;;;;;;18.30;58.68;101406.59;5007418;28;19925;-78
2022/07/19 01:08:46;;;;;;;;;;;;;;;18.34;58.44;101409.00;5002987;28;19921;-78
2022/07/19 01:11:11;;;;;;;;;;;;;;;18.34;57.83;101395.88;5005300;28;19925;-78
2022/07/19 01:13:36;;;;;;;;;;;;;;;18.30;58.11;101398.72;5005588;28;19925;-78
2022/07/19 01:16:02;;;;;;;;;;;;;;;18.32;57.96;101404.75;5006739;28;20519;-78
2022/07/19 01:18:27;;;;;;;;;;;;;;;18.30;57.46;101398.72;5005831;28;20033;-78
2022/07/19 01:20:53;;;;;;;;;;;;;;;18.28;57.26;101403.16;5004199;28;19922;-78
2022/07/19 01:23:18;;;;;;;;;;;;;;;18.31;57.56;101400.41;5002725;28;20059;-78
2022/07/19 01:25:43;;;;;;;;;;;;;;;18.31;57.59;101405.66;4997477;28;19929;-78
2022/07/19 01:28:09;;;;;;;;;;;;;;;18.30;57.62;101399.56;4983568;28;19925;-78
2022/07/19 01:30:35;;;;;;;;;;;;;;;18.32;57.55;101396.84;5003236;28;20447;-78
2022/07/19 01:33:00;;;;;;;;;;;;;;;18.32;57.30;101396.84;5005452;28;20004;-78
2022/07/19 01:35:26;;;;;;;;;;;;;;;18.32;57.20;101389.81;5004055;28;20016;-79
2022/07/19 01:37:51;;;;;;;;;;;;;;;18.30;57.17;101390.81;4998697;28;19945;-79
2022/07/19 01:40:17;;;;;;;;;;;;;;;18.25;58.19;101401.50;5004426;28;19926;-79
2022/07/19 01:42:43;;;;;;;;;;;;;;;18.26;57.77;101402.38;5006814;28;19921;-79
2022/07/19 01:45:09;;;;;;;;;;;;;;;18.28;57.03;101397.91;5005572;28;19987;-79
2022/07/19 01:47:35;;;;;;;;;;;;;;;18.25;58.17;101403.28;4997220;28;19967;-78
2022/07/19 01:50:00;;;;;;;;;;;;;;;18.26;57.49;101391.84;5004155;28;20352;-78
2022/07/19 01:52:26;;;;;;;;;;;;;;;18.23;57.84;101394.63;5005376;28;19925;-78
2022/07/19 01:54:51;;;;;;;;;;;;;;;18.21;57.88;101392.06;4998745;28;19934;-78
2022/07/19 01:57:16;;;;;;;;;;;;;;;18.18;58.05;101388.72;5002047;28;20655;-78
2022/07/19 01:59:42;;;;;;;;;;;;;;;18.16;57.88;101380.88;5003442;28;20059;-78
2022/07/19 02:02:10;;;;;;;;;;;;;;;18.13;57.09;101381.84;4989881;28;19957;-78
2022/07/19 02:04:35;;;;;;;;;;;;;;;18.15;56.81;101384.44;4980293;28;19950;-78
2022/07/19 02:07:00;;;;;;;;;;;;;;;18.14;57.38;101377.47;4981246;28;19922;-78
2022/07/19 02:09:26;;;;;;;;;;;;;;;18.13;57.17;101376.59;4983712;28;19968;-77
2022/07/19 02:11:51;;;;;;;;;;;;;;;18.12;57.41;101380.13;4983996;28;19929;-79
2022/07/19 02:14:17;;;;;;;;;;;;;;;18.10;57.56;101376.72;4995660;28;20589;-79
2022/07/19 02:16:43;;;;;;;;;;;;;;;18.05;57.74;101378.72;5002518;28;20389;-79
2022/07/19 02:19:08;;;;;;;;;;;;;;;18.07;57.80;101383.88;5006569;28;19932;-79
2022/07/19 02:21:34;;;;;;;;;;;;;;;18.11;57.49;101377.59;5010034;28;19936;-79
2022/07/19 02:24:00;;;;;;;;;;;;;;;18.04;57.72;101377.00;5004399;28;19921;-79
2022/07/19 02:26:25;;;;;;;;;;;;;;;18.05;57.73;101376.09;5004726;28;19925;-79
2022/07/19 02:28:51;;;;;;;;;;;;;;;18.03;57.38;101375.31;5003610;28;20017;-79
2022/07/19 02:31:17;;;;;;;;;;;;;;;18.04;57.45;101369.09;5006055;28;20008;-79
2022/07/19 02:33:42;;;;;;;;;;;;;;;18.04;56.76;101368.25;5007379;28;19968;-78
2022/07/19 02:36:08;;;;;;;;;;;;;;;17.98;57.21;101366.72;5003911;28;20566;-78
2022/07/19 02:38:33;;;;;;;;;;;;;;;17.98;57.49;101364.09;4998967;28;20456;-78
2022/07/19 02:40:58;;;;;;;;;;;;;;;18.02;56.88;101360.44;5004112;28;19917;-78
2022/07/19 02:43:24;;;;;;;;;;;;;;;17.97;57.03;101367.66;5003500;28;19932;-78
2022/07/19 02:45:49;;;;;;;;;;;;;;;17.94;57.00;101365.16;5005258;28;20388;-78
2022/07/19 02:48:15;;;;;;;;;;;;;;;17.93;57.09;101362.59;5005018;28;19929;-78
2022/07/19 02:50:40;;;;;;;;;;;;;;;17.93;57.12;101363.44;5008064;28;19928;-78
2022/07/19 02:53:06;;;;;;;;;;;;;;;17.94;56.67;101362.53;5010243;28;19947;-78
2022/07/19 02:55:31;;;;;;;;;;;;;;;17.93;56.73;101366.06;5007253;28;19934;-78
2022/07/19 02:57:56;;;;;;;;;;;;;;;17.90;56.87;101376.72;5009831;28;19941;-78
2022/07/19 03:00:22;;;;;;;;;;;;;;;17.92;56.59;101369.63;5006104;28;19932;-80
2022/07/19 03:02:50;;;;;;;;;;;;;;;17.90;56.94;101374.09;5004702;28;20409;-80
2022/07/19 03:05:15;;;;;;;;;;;;;;;17.91;57.44;101373.19;5006523;28;19929;-79
2022/07/19 03:07:41;;;;;;;;;;;;;;;17.90;57.38;101370.59;5007929;28;19937;-78
2022/07/19 03:10:07;;;;;;;;;;;;;;;17.89;57.17;101369.75;5003611;28;19937;-78
2022/07/19 03:12:32;;;;;;;;;;;;;;;17.87;57.36;101368.97;5007839;28;19922;-78
2022/07/19 03:14:57;;;;;;;;;;;;;;;17.88;57.29;101367.19;5013171;28;19930;-78
2022/07/19 03:17:23;;;;;;;;;;;;;;;17.86;57.49;101364.63;5006903;28;19926;-78
2022/07/19 03:19:48;;;;;;;;;;;;;;;17.84;57.51;101363.84;5001904;28;20043;-78
2022/07/19 03:22:13;;;;;;;;;;;;;;;17.86;57.34;101363.75;5003814;28;19922;-78
2022/07/19 03:24:39;;;;;;;;;;;;;;;17.84;58.08;101369.09;5003955;28;19929;-78
2022/07/19 03:27:04;;;;;;;;;;;;;;;17.87;57.36;101365.47;5007587;28;20355;-78
2022/07/19 03:29:29;;;;;;;;;;;;;;;17.88;57.67;101365.44;5005408;28;20451;-79
2022/07/19 03:31:55;;;;;;;;;;;;;;;17.87;57.27;101370.72;5000420;28;19922;-79
2022/07/19 03:34:20;;;;;;;;;;;;;;;17.87;57.37;101373.34;5006413;28;19933;-79
2022/07/19 03:36:45;;;;;;;;;;;;;;;17.84;57.44;101363.84;5007569;28;20625;-80
2022/07/19 03:39:11;;;;;;;;;;;;;;;17.82;57.54;101373.56;5005646;28;19921;-80
2022/07/19 03:41:36;;;;;;;;;;;;;;;17.83;57.37;101371.78;5007342;28;19926;-80
2022/07/19 03:44:01;;;;;;;;;;;;;;;17.83;57.19;101366.53;5006738;28;19968;-79
2022/07/19 03:46:28;;;;;;;;;;;;;;;17.81;56.95;101376.25;5004147;28;19926;-80
2022/07/19 03:48:54;;;;;;;;;;;;;;;17.83;57.14;101377.06;5003838;28;20180;-79
2022/07/19 03:51:19;;;;;;;;;;;;;;;17.81;56.51;101377.09;5003490;28;19998;-79
2022/07/19 03:53:46;;;;;;;;;;;;;;;17.84;56.70;101376.97;5004658;28;19922;-80
2022/07/19 03:56:11;;;;;;;;;;;;;;;17.80;57.10;101377.19;5004517;28;20423;-80
2022/07/19 03:58:37;;;;;;;;;;;;;;;17.83;56.69;101380.50;5004159;28;19936;-80
2022/07/19 04:01:02;;;;;;;;;;;;;;;17.74;57.15;101374.81;5002739;28;19952;-79
2022/07/19 04:03:27;;;;;;;;;;;;;;;17.74;57.15;101375.63;4982273;28;19918;-80
2022/07/19 04:05:53;;;;;;;;;;;;;;;17.75;55.74;101387.88;4998579;28;19933;-80
2022/07/19 04:08:18;;;;;;;;;;;;;;;17.77;56.84;101377.31;5003655;28;20008;-80
2022/07/19 04:10:43;;;;;;;;;;;;;;;17.76;57.33;101380.84;4997540;28;19929;-79
2022/07/19 04:13:09;;;;;;;;;;;;;;;17.77;57.79;101378.13;4976802;28;19926;-79
2022/07/19 04:15:34;;;;;;;;;;;;;;;17.77;57.49;101382.56;4993901;28;19926;-80
2022/07/19 04:17:59;;;;;;;;;;;;;;;17.77;57.17;101385.19;4987851;28;20539;-80
2022/07/19 04:20:25;;;;;;;;;;;;;;;17.82;56.65;101383.22;5001959;28;20266;-80
2022/07/19 04:22:50;;;;;;;;;;;;;;;17.78;57.38;101385.09;5006459;28;19955;-80
2022/07/19 04:25:15;;;;;;;;;;;;;;;17.77;57.37;101391.28;5007064;28;19976;-80
2022/07/19 04:27:41;;;;;;;;;;;;;;;17.78;58.14;101390.38;5004364;28;19933;-80
2022/07/19 04:30:06;;;;;;;;;;;;;;;17.78;57.69;101393.00;5008519;28;19957;-80
2022/07/19 04:32:33;;;;;;;;;;;;;;;17.75;58.54;101390.50;5003506;28;19976;-80
2022/07/19 04:34:58;;;;;;;;;;;;;;;17.78;57.94;101385.09;5003934;28;19936;-80
2022/07/19 04:37:24;;;;;;;;;;;;;;;17.82;57.80;101388.47;5005508;28;19926;-80
2022/07/19 04:39:49;;;;;;;;;;;;;;;17.81;57.54;101392.88;5005644;28;20103;-78
2022/07/19 04:42:14;;;;;;;;;;;;;;;17.81;57.91;101386.75;5010065;28;19922;-80
2022/07/19 04:44:40;;;;;;;;;;;;;;;17.83;57.57;101387.56;5005199;28;19961;-80
2022/07/19 04:47:05;;;;;;;;;;;;;;;17.85;57.93;101391.84;5005941;28;20016;-80
2022/07/19 04:49:30;;;;;;;;;;;;;;;17.87;57.30;101383.88;5000525;28;20316;-79
2022/07/19 04:51:56;;;;;;;;;;;;;;;17.87;56.61;101376.84;5004163;28;19972;-80
2022/07/19 04:54:21;;;;;;;;;;;;;;;17.87;57.59;101382.09;5003055;28;20412;-80
2022/07/19 04:56:46;;;;;;;;;;;;;;;17.88;57.57;101382.97;5003394;28;19936;-80
2022/07/19 04:59:12;;;;;;;;;;;;;;;17.91;56.38;101373.19;4986679;28;20347;-80
2022/07/19 05:01:37;;;;;;;;;;;;;;;17.95;55.97;101376.50;5003432;28;19964;-81
2022/07/19 05:04:02;;;;;;;;;;;;;;;17.98;57.21;101373.75;5004954;28;20011;-78
2022/07/19 05:06:28;;;;;;;;;;;;;;;17.99;56.56;101370.22;5006326;28;19956;-78
2022/07/19 05:08:53;;;;;;;;;;;;;;;18.00;56.91;101374.56;5007199;28;20004;-79
2022/07/19 05:11:19;;;;;;;;;;;;;;;18.02;57.08;101370.09;5004073;28;20012;-78
2022/07/19 05:13:44;;;;;;;;;;;;;;;18.02;56.86;101370.94;5005032;28;19922;-79
2022/07/19 05:16:10;;;;;;;;;;;;;;;18.03;57.18;101375.31;5000473;28;19933;-78
2022/07/19 05:18:35;;;;;;;;;;;;;;;18.06;57.63;101377.81;5003852;28;19921;-78
2022/07/19 05:21:00;;;;;;;;;;;;;;;18.04;58.45;101384.88;5003509;28;19921;-78
2022/07/19 05:23:26;;;;;;;;;;;;;;;18.03;58.44;101377.06;4990525;28;20428;-79
2022/07/19 05:25:51;;;;;;;;;;;;;;;18.06;58.29;101380.44;4982664;28;19929;-78
2022/07/19 05:28:16;;;;;;;;;;;;;;;18.10;57.93;101382.00;4981080;28;20341;-77
2022/07/19 05:30:43;;;;;;;;;;;;;;;18.11;58.16;101377.59;4982103;28;20020;-77
2022/07/19 05:33:08;;;;;;;;;;;;;;;18.09;59.93;101379.44;5003574;28;19960;-78
2022/07/19 05:35:34;;;;;;;;;;;;;;;18.16;59.83;101379.09;5002622;28;19926;-78
2022/07/19 05:37:59;;;;;;;;;;;;;;;18.20;57.84;101373.72;5001793;28;19926;-78
2022/07/19 05:40:24;;;;;;;;;;;;;;;18.22;57.77;101374.50;5002093;28;19967;-78
2022/07/19 05:42:50;;;;;;;;;;;;;;;18.22;58.19;101363.97;5004986;28;19929;-80
2022/07/19 05:45:15;;;;;;;;;;;;;;;18.30;55.64;101370.63;4999421;28;20035;-81
2022/07/19 05:47:40;;;;;;;;;;;;;;;18.30;56.01;101369.78;5003178;28;19924;-82
2022/07/19 05:50:06;;;;;;;;;;;;;;;18.34;56.77;101376.59;5011401;28;19932;-81
2022/07/19 05:52:31;;;;;;;;;;;;;;;18.36;56.52;101375.59;5009548;28;20640;-80
2022/07/19 05:54:56;;;;;;;;;;;;;;;18.40;55.57;101373.69;5003380;28;19952;-80
2022/07/19 05:57:22;;;;;;;;;;;;;;;18.41;56.08;101373.66;5007652;28;19922;-80
2022/07/19 05:59:47;;;;;;;;;;;;;;;18.44;55.57;101364.75;5005732;28;20036;-80
2022/07/19 06:02:12;;;;;;;;;;;;;;;18.46;54.77;101371.69;5004270;28;19922;-80
2022/07/19 06:04:38;;;;;;;;;;;;;;;18.46;55.25;101376.94;5004247;28;19929;-78
2022/07/19 06:07:03;;;;;;;;;;;;;;;18.50;55.57;101369.78;5006140;28;20320;-78
2022/07/19 06:09:28;;;;;;;;;;;;;;;18.51;55.45;101367.06;5005538;28;20400;-78
2022/07/19 06:11:54;;;;;;;;;;;;;;;18.54;55.50;101371.38;5006201;28;19971;-78
2022/07/19 06:14:20;;;;;;;;;;;;;;;18.58;55.04;101378.19;5004888;28;19925;-78
2022/07/19 06:16:45;;;;;;;;;;;;;;;18.56;55.26;101378.28;5005640;28;20001;-78
2022/07/19 06:19:11;;;;;;;;;;;;;;;18.62;54.78;101374.50;5002467;28;20440;-78
2022/07/19 06:21:37;;;;;;;;;;;;;;;18.65;54.75;101374.38;5006651;28;19930;-77
2022/07/19 06:24:02;;;;;;;;;;;;;;;18.65;55.00;101374.38;5003459;28;19932;-78
2022/07/19 06:26:28;;;;;;;;;;;;;;;18.69;54.48;101389.94;5005157;28;19926;-78
2022/07/19 06:28:54;;;;;;;;;;;;;;;18.67;54.83;101385.66;5012068;28;19921;-78
2022/07/19 06:31:19;;;;;;;;;;;;;;;18.67;54.98;101386.53;5002209;28;20020;-78
2022/07/19 06:33:46;;;;;;;;;;;;;;;18.68;54.67;101390.88;5004201;28;20051;-78
2022/07/19 06:36:12;;;;;;;;;;;;;;;18.64;56.19;101391.94;5006165;28;19940;-78
2022/07/19 06:38:38;;;;;;;;;;;;;;;18.74;53.93;101387.13;5006504;28;20654;-77
2022/07/19 06:41:03;;;;;;;;;;;;;;;18.73;54.62;101385.41;5007158;28;19921;-78
2022/07/19 06:43:28;;;;;;;;;;;;;;;18.72;55.00;101388.94;4997509;28;19965;-78
2022/07/19 06:45:55;;;;;;;;;;;;;;;18.72;54.98;101388.94;4980722;28;19926;-78
2022/07/19 06:48:20;;;;;;;;;;;;;;;18.69;57.27;101381.19;5008281;28;19972;-78
2022/07/19 06:50:46;;;;;;;;;;;;;;;18.66;57.35;101383.94;5004912;28;19925;-78
2022/07/19 06:53:11;;;;;;;;;;;;;;;18.69;56.09;101378.56;5005046;28;20388;-78
2022/07/19 06:55:36;;;;;;;;;;;;;;;18.66;58.20;101381.31;5007215;28;19929;-78
2022/07/19 06:58:02;;;;;;;;;;;;;;;18.64;59.58;101385.81;5003717;28;19929;-78
2022/07/19 07:00:27;;;;;;;;;;;;;;;18.67;57.79;101383.91;5008907;28;19937;-78
2022/07/19 07:02:53;;;;;;;;;;;;;;;18.64;58.30;101383.19;4989760;28;19930;-78
2022/07/19 07:05:18;;;;;;;;;;;;;;;18.69;58.80;101391.72;4989194;28;19930;-78
2022/07/19 07:07:43;;;;;;;;;;;;;;;18.68;59.16;101382.13;4984289;28;19930;-81
2022/07/19 07:10:09;;;;;;;;;;;;;;;18.68;58.68;101382.13;4986255;28;19996;-80
2022/07/19 07:12:34;;;;;;;;;;;;;;;18.70;60.70;101385.53;4984559;28;19918;-81
2022/07/19 07:15:00;;;;;;;;;;;;;;;18.69;57.95;101379.41;5009044;28;19999;-80
2022/07/19 07:17:25;;;;;;;;;;;;;;;18.72;61.55;101383.69;4991341;28;19926;-80
2022/07/19 07:19:51;;;;;;;;;;;;;;;18.67;61.37;101383.91;4985699;28;19926;-80
2022/07/19 07:22:16;;;;;;;;;;;;;;;18.70;59.27;101385.53;4981637;28;19933;-80
2022/07/19 07:24:42;;;;;;;;;;;;;;;18.75;61.63;101382.72;4988015;28;19997;-80
2022/07/19 07:27:07;;;;;;;;;;;;;;;18.66;62.39;101382.19;4986670;28;19922;-80
2022/07/19 07:29:32;;;;;;;;;;;;;;;18.63;62.90;101384.94;5000644;28;19926;-80
2022/07/19 07:31:58;;;;;;;;;;;;;;;18.79;60.29;101377.22;4998335;28;19969;-79
2022/07/19 07:34:23;;;;;;;;;;;;;;;18.68;62.83;101379.50;4986748;28;19950;-80
2022/07/19 07:36:48;;;;;;;;;;;;;;;18.68;62.76;101374.22;4984457;28;19985;-80
2022/07/19 07:39:14;;;;;;;;;;;;;;;18.69;62.64;101373.28;4988397;28;19921;-78
2022/07/19 07:41:39;;;;;;;;;;;;;;;18.83;59.88;101368.28;5003024;28;19928;-78
2022/07/19 07:44:05;;;;;;;;;;;;;;;18.73;62.69;101368.75;4994549;28;20008;-78
2022/07/19 07:46:30;;;;;;;;;;;;;;;18.80;61.79;101368.41;4987533;28;20316;-78
2022/07/19 07:48:56;;;;;;;;;;;;;;;18.97;58.33;101365.00;4982384;28;20323;-78
2022/07/19 07:51:21;;;;;;;;;;;;;;;18.79;62.79;101364.06;5003987;28;20052;-78
2022/07/19 07:53:47;;;;;;;;;;;;;;;18.74;63.15;101366.06;5002895;28;19925;-78
2022/07/19 07:56:12;;;;;;;;;;;;;;;18.78;62.91;101367.63;5005717;28;19982;-77
2022/07/19 07:58:37;;;;;;;;;;;;;;;18.75;63.05;101365.13;5004624;28;19929;-78
2022/07/19 08:01:03;;;;;;;;;;;;;;;18.73;63.30;101361.72;5003362;28;20388;-78
2022/07/19 08:03:28;;;;;;;;;;;;;;;18.72;63.40;101357.34;5002947;28;19932;-78
2022/07/19 08:05:53;;;;;;;;;;;;;;;18.72;63.47;101351.28;5018158;28;19917;-77
2022/07/19 08:08:19;;;;;;;;;;;;;;;18.75;63.58;101356.41;5003510;28;20012;-81
2022/07/19 08:10:45;;;;;;;;;;;;;;;18.73;63.48;101352.97;5003757;28;19922;-81
2022/07/19 08:13:11;;;;;;;;;;;;;;;18.78;63.12;101349.19;5001009;28;19925;-78
2022/07/19 08:15:37;;;;;;;;;;;;;;;18.75;63.49;101346.69;4999263;28;19932;-80
2022/07/19 08:18:02;;;;;;;;;;;;;;;18.84;60.54;101342.81;5007892;28;20004;-80
2022/07/19 08:20:28;;;;;;;;;;;;;;;18.79;63.55;101345.63;5004931;28;20351;-80
2022/07/19 08:22:53;;;;;;;;;;;;;;;18.76;63.55;101345.78;5001031;28;19926;-80
2022/07/19 08:25:18;;;;;;;;;;;;;;;18.76;63.63;101340.50;5006235;28;20277;-80
2022/07/19 08:27:44;;;;;;;;;;;;;;;18.93;62.75;101345.00;5002811;28;19960;-80
2022/07/19 08:30:10;;;;;;;;;;;;;;;18.80;63.57;101343.88;5009018;28;19925;-79
2022/07/19 08:32:36;;;;;;;;;;;;;;;18.94;62.94;101339.66;4991887;28;20377;-78
2022/07/19 08:35:02;;;;;;;;;;;;;;;18.84;63.45;101338.38;4983889;28;19933;-78
2022/07/19 08:37:27;;;;;;;;;;;;;;;18.82;63.46;101334.13;4987050;28;19983;-78
2022/07/19 08:39:53;;;;;;;;;;;;;;;18.95;62.93;101336.13;5002299;28;19932;-78
2022/07/19 08:42:19;;;;;;;;;;;;;;;18.88;63.39;101328.56;4985188;28;19917;-78
2022/07/19 08:44:46;;;;;;;;;;;;;;;18.81;63.60;101328.00;5000873;28;19922;-78
2022/07/19 08:47:12;;;;;;;;;;;;;;;18.84;63.71;101324.38;5006647;28;20043;-80
2022/07/19 08:49:37;;;;;;;;;;;;;;;18.80;63.85;101323.66;5000730;28;20032;-80
2022/07/19 08:52:04;;;;;;;;;;;;;;;18.83;63.92;101318.25;4999813;28;19925;-80
2022/07/19 08:54:29;;;;;;;;;;;;;;;18.82;63.86;101313.91;5000404;28;20615;-80
2022/07/19 08:59:39;;;;;;;;;;;;;;;18.97;59.26;101313.19;5004072;28;19932;-80
2022/07/19 09:02:04;;;;;;;;;;;;;;;18.86;63.59;101307.59;4987609;28;19932;-80
2022/07/19 09:04:30;;;;;;;;;;;;;;;19.21;61.26;101311.19;4991335;28;20323;-80
2022/07/19 09:06:57;;;;;;;;;;;;;;;18.93;63.25;101308.13;5001862;28;19949;-80
2022/07/19 09:09:24;;;;;;;;;;;;;;;18.93;63.34;101302.88;4982151;28;19935;-80
2022/07/19 09:11:51;;;;;;;;;;;;;;;19.18;61.76;101301.66;4979494;28;20467;-80
2022/07/19 09:14:18;;;;;;;;;;;;;;;18.92;63.44;101306.44;4983293;28;20336;-80
2022/07/19 09:16:50;;;;;;;;;;;;;;;18.88;63.69;101307.50;4984362;28;19956;-80
2022/07/19 09:19:15;;;;;;;;;;;;;;;19.01;60.56;101300.75;4986453;28;19932;-78
2022/07/19 09:21:56;;;;;;;;;;;;;;;18.89;63.58;101302.19;4983631;28;20000;-78
2022/07/19 09:24:22;;;;;;;;;;;;;;;18.97;63.46;101309.72;4985087;28;20020;-78
2022/07/19 09:27:01;;;;;;;;;;;;;;;18.89;63.74;101299.56;4988350;28;20041;-78
2022/07/19 09:29:27;;;;;;;;;;;;;;;19.06;63.07;101298.75;4984238;28;20400;-78
2022/07/19 09:32:06;;;;;;;;;;;;;;;18.95;63.42;101298.41;4985737;28;19983;-78
2022/07/19 09:34:33;;;;;;;;;;;;;;;18.97;63.40;101296.53;4993437;28;20582;-81
2022/07/19 09:37:10;;;;;;;;;;;;;;;18.95;63.74;101294.00;4986736;28;19937;-80
2022/07/19 09:39:36;;;;;;;;;;;;;;;18.95;63.77;101298.41;5002607;28;19913;-80
2022/07/19 09:42:03;;;;;;;;;;;;;;;19.06;61.87;101301.38;5001742;28;19922;-81
2022/07/19 09:44:29;;;;;;;;;;;;;;;19.00;63.29;101297.25;5002610;28;20296;-81
2022/07/19 09:46:54;;;;;;;;;;;;;;;18.94;63.58;101297.53;5001440;28;19929;-81
2022/07/19 09:49:20;;;;;;;;;;;;;;;18.97;63.66;101280.75;4999686;28;20451;-80
2022/07/19 09:51:50;;;;;;;;;;;;;;;19.06;57.70;101286.44;5011715;28;19928;-81
2022/07/19 09:54:26;;;;;;;;;;;;;;;19.16;62.58;101284.22;4996700;28;19928;-78
2022/07/19 09:56:52;;;;;;;;;;;;;;;19.00;63.42;101286.72;5001332;28;20507;-78
2022/07/19 09:59:18;;;;;;;;;;;;;;;18.99;63.45;101286.78;5004721;28;20381;-78
2022/07/19 10:01:46;;;;;;;;;;;;;;;19.17;62.11;101278.00;5009634;28;20040;-78
2022/07/19 10:04:12;;;;;;;;;;;;;;;19.03;63.42;101283.09;5013888;28;20315;-78
2022/07/19 10:06:38;;;;;;;;;;;;;;;19.00;63.57;101270.06;5014492;28;19971;-78
2022/07/19 10:09:04;;;;;;;;;;;;;;;19.03;63.49;101280.44;5010133;28;20427;-78
2022/07/19 10:11:30;;;;;;;;;;;;;;;19.00;63.68;101276.19;5011880;28;19965;-78
2022/07/19 10:13:56;;;;;;;;;;;;;;;18.99;63.54;101276.25;5012382;28;20515;-78
2022/07/19 10:16:39;;;;;;;;;;;;;;;19.24;54.04;101259.22;5010263;28;19944;-78
2022/07/19 10:19:10;;;;;;;;;;;;;;;19.19;62.37;101273.53;5011747;28;19998;-78
2022/07/19 10:21:36;;;;;;;;;;;;;;;19.07;63.31;101266.22;5013019;28;19923;-78
2022/07/19 10:24:02;;;;;;;;;;;;;;;19.07;63.45;101264.44;5009858;28;20724;-78
2022/07/19 10:26:38;;;;;;;;;;;;;;;19.37;56.61;101261.28;5009280;28;19967;-78
2022/07/19 10:29:10;;;;;;;;;;;;;;;19.22;62.56;101258.41;5010984;28;20436;-78
2022/07/19 10:31:36;;;;;;;;;;;;;;;19.10;63.12;101261.66;5012071;28;19937;-78
2022/07/19 10:34:08;;;;;;;;;;;;;;;19.06;63.53;101262.72;5004724;28;19917;-78
2022/07/19 10:36:35;;;;;;;;;;;;;;;19.15;63.05;101248.25;5004685;28;19953;-78
2022/07/19 10:39:19;;;;;;;;;;;;;;;19.07;63.44;101250.44;5006892;28;19922;-78
2022/07/19 10:42:03;;;;;;;;;;;;;;;19.12;63.46;101245.78;5008894;28;19984;-79
2022/07/19 10:44:30;;;;;;;;;;;;;;;19.14;63.33;101242.13;5023906;28;20466;-78
2022/07/19 10:46:55;;;;;;;;;;;;;;;19.16;63.29;101244.72;5011464;28;19957;-78
2022/07/19 10:49:39;;;;;;;;;;;;;;;19.15;63.51;101243.00;5000446;28;19956;-78
2022/07/19 10:52:25;;;;;;;;;;;;;;;19.49;57.17;101232.50;5024676;28;19917;-78
2022/07/19 10:55:09;;;;;;;;;;;;;;;19.15;63.12;101237.72;5009935;28;20067;-78
2022/07/19 10:57:37;;;;;;;;;;;;;;;19.14;63.38;101242.13;5011826;28;19937;-78
2022/07/19 11:00:15;;;;;;;;;;;;;;;19.14;63.47;101228.97;5009425;28;19965;-78
2022/07/19 11:02:41;;;;;;;;;;;;;;;19.11;63.50;101228.25;5006846;28;19996;-78
2022/07/19 11:05:06;;;;;;;;;;;;;;;19.17;63.17;101226.19;5008833;28;20016;-78
2022/07/19 11:07:32;;;;;;;;;;;;;;;19.16;63.40;101226.28;5011548;28;19929;-78
2022/07/19 11:09:57;;;;;;;;;;;;;;;19.15;63.57;101229.81;5009256;28;20016;-78
2022/07/19 11:12:23;;;;;;;;;;;;;;;19.19;63.09;101221.69;5003667;28;19967;-78
2022/07/19 11:14:48;;;;;;;;;;;;;;;19.16;63.32;101216.56;5002727;28;19928;-78
2022/07/19 11:17:13;;;;;;;;;;;;;;;19.16;63.52;101221.84;5004740;28;19926;-79
2022/07/19 11:19:56;;;;;;;;;;;;;;;19.16;63.53;101215.75;5008403;28;19968;-79
2022/07/19 11:22:21;;;;;;;;;;;;;;;19.64;59.13;101213.28;5002067;28;19933;-78
2022/07/19 11:24:46;;;;;;;;;;;;;;;19.30;62.57;101212.44;5003291;28;19914;-79
2022/07/19 11:27:12;;;;;;;;;;;;;;;19.35;62.17;101207.78;5005847;28;21016;-80
2022/07/19 11:29:53;;;;;;;;;;;;;;;19.23;62.98;101203.97;5008166;28;19935;-80
2022/07/19 11:32:18;;;;;;;;;;;;;;;19.20;63.22;101197.06;5002335;28;19925;-81
2022/07/19 11:34:57;;;;;;;;;;;;;;;19.22;63.19;101197.00;4999965;28;19968;-81
2022/07/19 11:37:24;;;;;;;;;;;;;;;19.21;63.33;101197.91;4996883;28;19976;-78
2022/07/19 11:39:49;;;;;;;;;;;;;;;19.65;55.85;101191.28;5002670;28;19917;-81
2022/07/19 11:42:15;;;;;;;;;;;;;;;19.26;62.70;101202.03;5006212;28;19920;-80
2022/07/19 11:44:40;;;;;;;;;;;;;;;19.23;63.03;101194.28;5006773;28;19926;-78
2022/07/19 11:47:05;;;;;;;;;;;;;;;19.25;62.96;101191.59;5006560;28;19917;-78
2022/07/19 11:49:39;;;;;;;;;;;;;;;19.25;62.96;101183.69;5006530;28;19972;-77
2022/07/19 11:52:05;;;;;;;;;;;;;;;19.25;63.18;101184.50;4995343;28;20308;-78
2022/07/19 11:54:30;;;;;;;;;;;;;;;19.64;60.52;101179.03;5008014;28;19922;-78
2022/07/19 11:56:55;;;;;;;;;;;;;;;19.31;62.72;101179.91;5007790;28;20423;-78
2022/07/19 11:59:21;;;;;;;;;;;;;;;19.26;62.91;101175.69;5008557;28;19949;-78
2022/07/19 12:01:46;;;;;;;;;;;;;;;19.25;63.17;101173.97;5001630;28;20399;-79
2022/07/19 12:04:12;;;;;;;;;;;;;;;19.32;62.61;101173.69;5006869;28;19932;-79
2022/07/19 12:06:38;;;;;;;;;;;;;;;19.25;62.53;101171.34;5007453;28;19930;-79
2022/07/19 12:09:07;;;;;;;;;;;;;;;19.28;62.53;101156.31;5004261;28;19934;-79
2022/07/19 12:11:37;;;;;;;;;;;;;;;19.58;55.34;101157.44;5004983;28;19926;-79
2022/07/19 12:14:15;;;;;;;;;;;;;;;19.36;62.35;101165.56;5002273;28;19928;-79
2022/07/19 12:16:41;;;;;;;;;;;;;;;19.25;62.59;101152.91;5008245;28;20499;-78
2022/07/19 12:19:10;;;;;;;;;;;;;;;19.31;62.62;101149.16;5005354;28;22417;-78
2022/07/19 12:21:37;;;;;;;;;;;;;;;19.42;61.95;101148.59;5005876;28;19968;-78
2022/07/19 12:24:08;;;;;;;;;;;;;;;19.31;60.28;101145.66;5007940;28;19991;-78
2022/07/19 12:26:33;;;;;;;;;;;;;;;19.29;62.48;101142.25;5004940;28;19953;-78
2022/07/19 12:28:59;;;;;;;;;;;;;;;19.33;62.19;101143.78;5002156;28;20537;-78
2022/07/19 12:31:24;;;;;;;;;;;;;;;19.27;62.40;101137.03;5006735;28;19972;-78
2022/07/19 12:34:00;;;;;;;;;;;;;;;19.31;62.42;101133.34;5006933;28;19948;-78